Mansfield, Massachusetts
Current Conditions -  °F | °C
As of 7:53 PM on Monday 26 Jan 2015 (Local Time) from KOWD Reporting Station
Light Snow Light Snow  
Wind Chill: 17°   Ceiling: 1100
Heat Index: 28°   Visibility: 0.75mi
Dew Point: 25°   Wind: 14mph
Humidity: 88%   Direction: 50°NE
Pressure: 29.98"   Gusts: 23mph
Location:  42.03°N, 71.22°W
Report Text: KOWD 270053Z 05012G20KT 3/4SM -SN BR OVC011 M02/M04 A2998 RMK AO2 SLP151 P0000 T10221039
Loading
Personal Weather Stations






























Interactive Weather Map New forecast layout! Learn more

10-Day Weather Forecast

Advertisements
Track Severe Weather on mobile